sim
Sign-in with your pilot id or email,
or register
Callsign
Passwort

Schedule Details

Flight Number: DLH1825
Departure: Bilbao Airport (LEBB) at 10:50
Arrival: Munich Airport (EDDM) at 13:00
Route: Lufthansa Passenger Schedule. Enter filed route here before submitting Pirep.

Weather Information
Getting current METAR information for LEBB 251000Z 27012KT 220V300 9999 FEW018 SCT032TCU BKN050 15/11 Q1020 RESHRA TEMPO 3000 +SHRA TS BKN025CB
Getting current METAR information for EDDM 251020Z 26005KT 9999 -RA FEW012 SCT020 BKN040 10/08 Q1002 NOSIG

Schedule Frequency

Route Map